createdAt,value
2022-12-12T00:08:01.787Z,4.73
2022-12-12T00:28:07.561Z,5.64
2022-12-12T00:48:13.374Z,5.89
2022-12-12T01:08:19.225Z,6.52
2022-12-12T01:28:24.882Z,6.70
2022-12-12T01:48:30.658Z,7.23
2022-12-12T02:08:36.479Z,7.17
2022-12-12T02:28:42.236Z,7.23
2022-12-12T02:48:48.035Z,8.24
2022-12-12T03:08:53.826Z,8.15
2022-12-12T03:28:59.625Z,7.98
2022-12-12T03:49:05.372Z,8.50
2022-12-12T04:09:11.076Z,8.61
2022-12-12T04:29:16.864Z,9.63
2022-12-12T04:49:22.615Z,8.05
2022-12-12T05:09:28.388Z,8.62
2022-12-12T05:29:34.197Z,8.33
2022-12-12T05:49:39.973Z,8.56
2022-12-12T06:09:45.819Z,7.40
2022-12-12T06:29:51.570Z,7.58
2022-12-12T06:49:57.384Z,7.99
2022-12-12T07:10:03.176Z,7.46
2022-12-12T07:30:08.985Z,8.77
2022-12-12T07:50:14.809Z,9.39
2022-12-12T08:10:20.772Z,9.90
2022-12-12T08:30:26.545Z,9.24
2022-12-12T08:50:32.349Z,9.21
2022-12-12T09:10:38.165Z,8.74
2022-12-12T09:30:43.932Z,7.65
2022-12-12T09:50:49.790Z,7.39
2022-12-12T10:10:55.581Z,7.83
2022-12-12T10:31:01.338Z,6.15
2022-12-12T10:51:07.150Z,5.81
2022-12-12T11:11:12.962Z,4.18
2022-12-12T11:31:18.854Z,4.16
2022-12-12T11:51:24.619Z,4.39
2022-12-12T12:11:30.460Z,4.38
2022-12-12T12:31:36.278Z,3.51
2022-12-12T12:51:48.527Z,7.74
2022-12-12T13:11:47.799Z,3.49
2022-12-12T13:31:53.638Z,7.02
2022-12-12T13:51:59.469Z,3.61
2022-12-12T14:12:05.290Z,3.54
2022-12-12T14:32:11.129Z,3.26
2022-12-12T14:52:17.039Z,3.55
2022-12-12T15:12:22.954Z,3.57
2022-12-12T15:32:28.913Z,3.75
2022-12-12T15:52:34.648Z,4.29
2022-12-12T16:12:40.487Z,5.02
2022-12-12T16:32:46.356Z,4.45
2022-12-12T16:52:52.345Z,4.17
2022-12-12T17:12:58.399Z,4.11
2022-12-12T17:33:16.690Z,4.77
2022-12-12T17:53:12.537Z,5.36
2022-12-12T18:13:18.354Z,6.21
2022-12-12T18:33:24.192Z,9.19
2022-12-12T18:53:30.130Z,16.54
2022-12-12T19:13:38.269Z,9.23
2022-12-12T19:33:41.502Z,9.42
2022-12-12T19:53:47.272Z,9.86
2022-12-12T20:13:53.050Z,9.75
2022-12-12T20:33:58.849Z,9.84
2022-12-12T20:54:04.654Z,10.33
2022-12-12T21:14:10.457Z,11.19
2022-12-12T21:34:16.328Z,11.81
2022-12-12T21:54:22.156Z,12.30
2022-12-12T22:14:27.941Z,11.55
2022-12-12T22:34:33.790Z,11.10
2022-12-12T22:54:39.555Z,10.82
2022-12-12T23:14:45.422Z,11.11
2022-12-12T23:34:51.248Z,11.04
2022-12-12T23:54:57.083Z,10.89
